Time;durP1;ratioP1;P1;durP2;ratioP2;P2;SDS_P1;SDS_P2;PMS_P1;PMS_P2;Temp;Humidity;BMP_temperature;BMP_pressure;BME280_temperature;BME280_humidity;BME280_pressure;Samples;Min_cycle;Max_cycle;Signal;HPM_P1;HPM_P2
2021/12/27 00:01:07;;;;;;;20.27;15.20;;;-0.10;99.90;;;;;;5078184;28;20071;-69
2021/12/27 00:03:33;;;;;;;20.50;14.77;;;-0.10;99.90;;;;;;5084004;28;20554;-69
2021/12/27 00:05:58;;;;;;;20.50;14.05;;;-0.10;99.90;;;;;;5083570;28;20052;-68
2021/12/27 00:08:24;;;;;;;24.60;14.82;;;-0.10;99.90;;;;;;5077756;28;20062;-68
2021/12/27 00:10:50;;;;;;;22.48;14.77;;;-0.10;99.90;;;;;;5078813;28;20043;-68
2021/12/27 00:13:16;;;;;;;20.27;14.85;;;-0.10;99.90;;;;;;5080620;28;20033;-68
2021/12/27 00:15:43;;;;;;;20.42;15.18;;;-0.10;99.90;;;;;;5063224;28;20052;-68
2021/12/27 00:18:10;;;;;;;21.65;14.55;;;-0.10;99.90;;;;;;5081076;28;20192;-68
2021/12/27 00:20:36;;;;;;;22.77;15.00;;;0.00;99.90;;;;;;5077366;28;20044;-68
2021/12/27 00:23:01;;;;;;;19.52;15.05;;;0.00;99.90;;;;;;5076950;28;20051;-68
2021/12/27 00:25:29;;;;;;;20.92;15.13;;;0.00;99.90;;;;;;5078807;28;20128;-69
2021/12/27 00:27:55;;;;;;;20.23;14.43;;;0.10;99.90;;;;;;5074118;28;20058;-69
2021/12/27 00:30:22;;;;;;;21.10;14.52;;;0.10;99.90;;;;;;5078457;28;20048;-69
2021/12/27 00:32:50;;;;;;;18.30;14.07;;;0.10;99.90;;;;;;5080426;28;20043;-69
2021/12/27 00:35:22;;;;;;;19.40;14.45;;;0.10;99.90;;;;;;5081156;28;20036;-69
2021/12/27 00:37:48;;;;;;;20.60;15.75;;;0.10;99.90;;;;;;5075321;28;20064;-69
2021/12/27 00:40:14;;;;;;;20.88;15.38;;;0.10;99.90;;;;;;5079530;28;20066;-68
2021/12/27 00:42:41;;;;;;;20.60;15.35;;;0.10;99.90;;;;;;5067004;28;20040;-68
2021/12/27 00:45:07;;;;;;;21.15;15.07;;;0.10;99.90;;;;;;5074739;28;20040;-68
2021/12/27 00:47:33;;;;;;;20.50;15.27;;;0.20;99.90;;;;;;5079688;28;20032;-69
2021/12/27 00:49:58;;;;;;;22.10;15.65;;;0.20;99.90;;;;;;5082608;28;20047;-69
2021/12/27 00:52:24;;;;;;;23.17;16.48;;;0.20;99.90;;;;;;5077839;28;20058;-68
2021/12/27 00:54:50;;;;;;;21.95;15.55;;;0.20;99.90;;;;;;5083482;28;20040;-69
2021/12/27 00:57:16;;;;;;;22.77;16.17;;;0.10;99.90;;;;;;5066286;28;20055;-69
2021/12/27 00:59:41;;;;;;;24.30;16.88;;;0.20;99.90;;;;;;5082087;28;20059;-69
2021/12/27 01:02:07;;;;;;;21.63;15.52;;;0.20;99.90;;;;;;5063503;28;20048;-69
2021/12/27 01:04:33;;;;;;;21.83;15.35;;;0.20;99.90;;;;;;5083375;28;20040;-69
2021/12/27 01:06:58;;;;;;;22.10;16.15;;;0.20;99.90;;;;;;5081764;28;20051;-69
2021/12/27 01:10:02;;;;;;;26.00;16.65;;;0.20;99.90;;;;;;5081644;28;20035;-69
2021/12/27 01:12:27;;;;;;;20.65;14.93;;;0.20;99.90;;;;;;5081787;28;20071;-69
2021/12/27 01:15:34;;;;;;;25.27;16.00;;;0.20;99.90;;;;;;5083712;28;20036;-69
2021/12/27 01:17:58;;;;;;;22.35;15.88;;;0.20;99.90;;;;;;5080176;28;20048;-69
2021/12/27 01:20:25;;;;;;;21.35;15.77;;;0.20;99.90;;;;;;5078760;28;20047;-69
2021/12/27 01:22:53;;;;;;;21.40;15.90;;;0.20;99.90;;;;;;5081401;28;20040;-69
2021/12/27 01:25:19;;;;;;;23.38;16.35;;;0.20;99.90;;;;;;5074265;28;20052;-68
2021/12/27 01:27:45;;;;;;;24.80;17.27;;;0.20;99.90;;;;;;5077673;28;20044;-68
2021/12/27 01:30:15;;;;;;;23.50;16.38;;;0.20;99.90;;;;;;5085771;28;20105;-68
2021/12/27 01:32:49;;;;;;;24.05;16.48;;;0.20;99.90;;;;;;5079987;28;20063;-68
2021/12/27 01:35:15;;;;;;;20.92;15.32;;;0.20;99.90;;;;;;5083687;28;20500;-69
2021/12/27 01:37:41;;;;;;;22.50;15.93;;;0.30;99.90;;;;;;5080338;28;20151;-68
2021/12/27 01:40:08;;;;;;;22.02;16.35;;;0.20;99.90;;;;;;5077962;28;20506;-68
2021/12/27 01:42:34;;;;;;;21.95;15.68;;;0.20;99.90;;;;;;5079010;28;20072;-68
2021/12/27 01:45:00;;;;;;;23.80;17.55;;;0.20;99.90;;;;;;5081382;28;20094;-68
2021/12/27 01:47:28;;;;;;;24.98;16.63;;;0.20;99.90;;;;;;5078988;28;20044;-69
2021/12/27 01:49:54;;;;;;;25.80;17.02;;;0.30;99.90;;;;;;5065647;28;20052;-69
2021/12/27 01:52:19;;;;;;;21.85;16.17;;;0.30;99.90;;;;;;5079051;28;20528;-68
2021/12/27 01:54:45;;;;;;;25.83;17.30;;;0.30;99.90;;;;;;5082805;28;20043;-68
2021/12/27 01:57:11;;;;;;;24.13;17.23;;;0.30;99.90;;;;;;5080836;28;20075;-68
2021/12/27 01:59:37;;;;;;;23.15;16.70;;;0.20;99.90;;;;;;5080963;28;20097;-68
2021/12/27 02:02:03;;;;;;;26.33;18.17;;;0.30;99.90;;;;;;5081265;28;20040;-68
2021/12/27 02:04:29;;;;;;;24.02;16.85;;;0.30;99.90;;;;;;5081565;28;20036;-69
2021/12/27 02:06:54;;;;;;;23.98;17.88;;;0.30;99.90;;;;;;5083783;28;20198;-69
2021/12/27 02:09:28;;;;;;;23.17;16.70;;;0.20;99.90;;;;;;5081490;28;20035;-69
2021/12/27 02:11:54;;;;;;;24.40;16.67;;;0.30;99.90;;;;;;5062547;28;20051;-69
2021/12/27 02:14:19;;;;;;;23.65;16.20;;;0.20;99.90;;;;;;5085089;28;20048;-69
2021/12/27 02:16:45;;;;;;;22.83;17.23;;;0.20;99.90;;;;;;5086297;28;20074;-68
2021/12/27 02:19:11;;;;;;;24.58;17.13;;;0.30;99.90;;;;;;5081775;28;20104;-68
2021/12/27 02:21:36;;;;;;;24.10;17.45;;;0.20;99.90;;;;;;5081293;28;20048;-68
2021/12/27 02:24:04;;;;;;;23.90;16.85;;;0.30;99.90;;;;;;5081877;28;20047;-68
2021/12/27 02:26:29;;;;;;;24.55;16.95;;;0.30;99.90;;;;;;5073798;28;20062;-69
2021/12/27 02:28:55;;;;;;;23.27;16.83;;;0.30;99.90;;;;;;5063907;28;20048;-69
2021/12/27 02:31:21;;;;;;;23.92;17.92;;;0.30;99.90;;;;;;5079336;28;20110;-69
2021/12/27 02:33:47;;;;;;;25.98;18.52;;;0.30;99.90;;;;;;5081085;28;20469;-69
2021/12/27 02:36:13;;;;;;;25.80;18.52;;;0.20;99.90;;;;;;5081511;28;20067;-69
2021/12/27 02:38:41;;;;;;;24.85;17.38;;;0.30;99.90;;;;;;5080539;28;20475;-69
2021/12/27 02:41:09;;;;;;;25.10;17.77;;;0.30;99.90;;;;;;5079365;28;20052;-69
2021/12/27 02:43:36;;;;;;;25.63;17.45;;;0.30;99.90;;;;;;5079942;28;20111;-70
2021/12/27 02:46:06;;;;;;;26.67;18.30;;;0.30;99.90;;;;;;5082638;28;20036;-69
2021/12/27 02:48:38;;;;;;;24.90;17.92;;;0.30;99.90;;;;;;5082198;28;20043;-69
2021/12/27 02:51:05;;;;;;;25.40;18.13;;;0.30;99.90;;;;;;5072563;28;20048;-69
2021/12/27 02:53:30;;;;;;;27.13;18.27;;;0.30;99.90;;;;;;5078760;28;20038;-69
2021/12/27 02:55:57;;;;;;;26.05;18.33;;;0.20;99.90;;;;;;5078323;28;20028;-69
2021/12/27 02:58:24;;;;;;;25.38;18.05;;;0.20;99.90;;;;;;5080128;28;20036;-69
2021/12/27 03:00:57;;;;;;;23.88;17.88;;;0.20;99.90;;;;;;5083365;28;20039;-68
2021/12/27 03:03:23;;;;;;;24.58;17.73;;;0.30;99.90;;;;;;5083255;28;20113;-68
2021/12/27 03:05:49;;;;;;;25.77;18.63;;;0.30;99.90;;;;;;5076414;28;20050;-68
2021/12/27 03:08:16;;;;;;;27.83;17.98;;;0.30;99.90;;;;;;5082510;28;20040;-68
2021/12/27 03:10:50;;;;;;;24.70;18.48;;;0.30;99.90;;;;;;5062408;28;20040;-68
2021/12/27 03:13:19;;;;;;;24.92;18.50;;;0.30;99.90;;;;;;5079939;28;20050;-68
2021/12/27 03:15:45;;;;;;;28.52;19.10;;;0.30;99.90;;;;;;5081489;28;20484;-68
2021/12/27 03:18:12;;;;;;;25.00;18.15;;;0.30;99.90;;;;;;5083531;28;20078;-68
2021/12/27 03:20:38;;;;;;;25.25;18.40;;;0.30;99.90;;;;;;5076111;28;20048;-69
2021/12/27 03:23:04;;;;;;;24.48;18.90;;;0.30;99.90;;;;;;5070480;28;20127;-69
2021/12/27 03:25:29;;;;;;;24.15;18.02;;;0.30;99.90;;;;;;5062208;28;20127;-69
2021/12/27 03:27:55;;;;;;;26.08;18.15;;;0.40;99.90;;;;;;5076674;28;20094;-69
2021/12/27 03:30:23;;;;;;;26.80;17.92;;;0.30;99.90;;;;;;5077012;28;20051;-69
2021/12/27 03:32:50;;;;;;;24.95;17.75;;;0.30;99.90;;;;;;5079911;28;20040;-69
2021/12/27 03:35:25;;;;;;;24.95;17.98;;;0.40;99.90;;;;;;5080635;28;20412;-69
2021/12/27 03:37:53;;;;;;;27.13;19.38;;;0.30;99.90;;;;;;5078527;28;20471;-69
2021/12/27 03:40:20;;;;;;;25.70;18.27;;;0.40;99.90;;;;;;5082882;28;20393;-69
2021/12/27 03:42:50;;;;;;;27.35;18.77;;;0.40;99.90;;;;;;5082988;28;20039;-69
2021/12/27 03:45:22;;;;;;;25.67;18.98;;;0.40;99.90;;;;;;5076816;28;20039;-69
2021/12/27 03:47:49;;;;;;;29.10;19.08;;;0.40;99.90;;;;;;5083229;28;20454;-68
2021/12/27 03:50:15;;;;;;;26.08;18.52;;;0.40;99.90;;;;;;5079436;28;20127;-68
2021/12/27 03:52:41;;;;;;;25.55;18.77;;;0.40;99.90;;;;;;5075758;28;20176;-68
2021/12/27 03:55:08;;;;;;;24.65;17.73;;;0.40;99.90;;;;;;5078877;28;20123;-69
2021/12/27 03:57:36;;;;;;;26.55;17.15;;;0.40;99.90;;;;;;5081150;28;20048;-69
2021/12/27 04:02:40;;;;;;;24.50;18.17;;;0.50;99.90;;;;;;5077203;28;20409;-68
2021/12/27 04:05:10;;;;;;;25.90;17.48;;;0.50;99.90;;;;;;5082305;28;20122;-69
2021/12/27 04:07:40;;;;;;;24.88;18.33;;;0.50;99.90;;;;;;5079190;28;20070;-69
2021/12/27 04:10:09;;;;;;;27.35;18.15;;;0.50;99.90;;;;;;5083294;28;20092;-69
2021/12/27 04:12:36;;;;;;;25.52;18.02;;;0.50;99.90;;;;;;5080541;28;20067;-69
2021/12/27 04:15:02;;;;;;;24.27;16.67;;;0.50;99.90;;;;;;5078800;28;20058;-68
2021/12/27 04:17:28;;;;;;;26.63;17.98;;;0.50;99.90;;;;;;5075829;28;20044;-68
2021/12/27 04:19:54;;;;;;;24.90;17.02;;;0.50;99.90;;;;;;5080608;28;20051;-68
2021/12/27 04:22:20;;;;;;;26.35;18.15;;;0.50;99.90;;;;;;5076663;28;20032;-68
2021/12/27 04:24:46;;;;;;;27.88;19.27;;;0.50;99.90;;;;;;5071416;28;20047;-68
2021/12/27 04:27:11;;;;;;;24.67;17.95;;;0.50;99.90;;;;;;5080522;28;20323;-68
2021/12/27 04:29:37;;;;;;;26.75;17.15;;;0.50;99.90;;;;;;5065445;28;20047;-68
2021/12/27 04:32:03;;;;;;;27.52;18.77;;;0.50;99.90;;;;;;5082605;28;20369;-68
2021/12/27 04:34:29;;;;;;;24.70;18.33;;;0.50;99.90;;;;;;5084193;28;20866;-68
2021/12/27 04:36:55;;;;;;;26.63;19.05;;;0.50;99.90;;;;;;5089222;28;20036;-68
2021/12/27 04:39:20;;;;;;;28.35;19.33;;;0.50;99.90;;;;;;5082663;28;20135;-68
2021/12/27 04:41:48;;;;;;;25.38;18.52;;;0.50;99.90;;;;;;5080159;28;20040;-68
2021/12/27 04:44:14;;;;;;;26.25;18.10;;;0.50;99.90;;;;;;5086344;28;20064;-68
2021/12/27 04:46:40;;;;;;;24.48;18.15;;;0.60;99.90;;;;;;5087257;28;20077;-68
2021/12/27 04:49:05;;;;;;;24.02;18.67;;;0.60;99.90;;;;;;5084649;28;20113;-68
2021/12/27 04:51:31;;;;;;;26.10;18.45;;;0.60;99.90;;;;;;5081288;28;20058;-68
2021/12/27 04:53:57;;;;;;;24.40;18.30;;;0.60;99.90;;;;;;5081449;28;20275;-68
2021/12/27 04:56:22;;;;;;;26.08;19.25;;;0.60;99.90;;;;;;5080645;28;20040;-68
2021/12/27 04:58:49;;;;;;;31.42;20.55;;;0.60;99.90;;;;;;5083648;28;20073;-68
2021/12/27 05:01:15;;;;;;;32.78;21.13;;;0.50;99.90;;;;;;5084443;28;20044;-68
2021/12/27 05:03:41;;;;;;;28.75;19.73;;;0.50;99.90;;;;;;5083959;28;20036;-68
2021/12/27 05:06:07;;;;;;;31.30;21.48;;;0.50;99.90;;;;;;5083332;28;20499;-68
2021/12/27 05:08:33;;;;;;;35.15;22.70;;;0.50;99.90;;;;;;5079339;28;20135;-68
2021/12/27 05:10:59;;;;;;;37.30;21.38;;;0.50;99.90;;;;;;5079371;28;20115;-68
2021/12/27 05:13:25;;;;;;;34.45;21.88;;;0.40;99.90;;;;;;5090654;28;20071;-68
2021/12/27 05:15:51;;;;;;;34.78;22.77;;;0.40;99.90;;;;;;5081985;28;20044;-68
2021/12/27 05:18:16;;;;;;;35.97;23.50;;;0.40;99.90;;;;;;5083818;28;20040;-68
2021/12/27 05:20:42;;;;;;;37.88;24.08;;;0.40;99.90;;;;;;5065286;28;20048;-68
2021/12/27 05:23:08;;;;;;;38.28;23.63;;;0.40;99.90;;;;;;5079182;28;20105;-68
2021/12/27 05:25:34;;;;;;;35.83;23.48;;;0.40;99.90;;;;;;5078524;28;20071;-68
2021/12/27 05:27:59;;;;;;;34.63;22.52;;;0.40;99.90;;;;;;5063829;28;20139;-68
2021/12/27 05:30:25;;;;;;;39.30;23.50;;;0.40;99.90;;;;;;5079372;28;20078;-68
2021/12/27 05:32:51;;;;;;;31.25;21.45;;;0.40;99.90;;;;;;5078281;28;20411;-68
2021/12/27 05:35:16;;;;;;;32.42;21.88;;;0.40;99.90;;;;;;5082430;28;20036;-68
2021/12/27 05:37:44;;;;;;;33.83;23.00;;;0.40;99.90;;;;;;5073050;28;20248;-68
2021/12/27 05:40:16;;;;;;;33.83;23.60;;;0.40;99.90;;;;;;5062130;28;20049;-68
2021/12/27 05:42:42;;;;;;;31.55;22.05;;;0.40;99.90;;;;;;5083651;28;20044;-68
2021/12/27 05:45:08;;;;;;;33.35;22.30;;;0.40;99.90;;;;;;5066977;28;20067;-68
2021/12/27 05:47:35;;;;;;;34.92;22.90;;;0.40;99.90;;;;;;5082841;28;20105;-68
2021/12/27 05:50:01;;;;;;;29.35;20.60;;;0.40;99.90;;;;;;5084294;28;20480;-68
2021/12/27 05:52:27;;;;;;;34.42;23.30;;;0.40;99.90;;;;;;5080203;28;21459;-68
2021/12/27 05:54:52;;;;;;;36.10;22.88;;;0.40;99.90;;;;;;5081000;28;20052;-68
2021/12/27 05:57:19;;;;;;;37.17;23.63;;;0.40;99.90;;;;;;5081766;28;21090;-68
2021/12/27 05:59:45;;;;;;;36.35;24.20;;;0.50;99.90;;;;;;5080011;28;20067;-68
2021/12/27 06:02:11;;;;;;;33.65;22.27;;;0.50;99.90;;;;;;5082402;28;20047;-68
2021/12/27 06:04:39;;;;;;;36.38;22.80;;;0.40;99.90;;;;;;5068645;28;20037;-68
2021/12/27 06:07:05;;;;;;;36.17;23.23;;;0.40;99.90;;;;;;5066772;28;20040;-68
2021/12/27 06:09:31;;;;;;;38.60;23.30;;;0.40;99.90;;;;;;5083204;28;20047;-68
2021/12/27 06:11:56;;;;;;;35.50;23.20;;;0.40;99.90;;;;;;5081175;28;20040;-68
2021/12/27 06:14:22;;;;;;;36.50;23.40;;;0.40;99.90;;;;;;5084115;28;20048;-67
2021/12/27 06:16:48;;;;;;;35.90;24.00;;;0.40;99.90;;;;;;5080217;28;20051;-67
2021/12/27 06:19:13;;;;;;;36.33;23.55;;;0.40;99.90;;;;;;5075882;28;20058;-67
2021/12/27 06:21:39;;;;;;;40.13;23.65;;;0.50;99.90;;;;;;5081366;28;20093;-67
2021/12/27 06:24:05;;;;;;;36.10;23.73;;;0.50;99.90;;;;;;5081644;28;20692;-67
2021/12/27 06:26:31;;;;;;;40.45;25.17;;;0.50;99.90;;;;;;5081124;28;20133;-67
2021/12/27 06:28:57;;;;;;;37.08;23.92;;;0.50;99.90;;;;;;5082136;28;20256;-68
2021/12/27 06:31:23;;;;;;;39.17;23.50;;;0.50;99.90;;;;;;5076373;28;20040;-67
2021/12/27 06:33:49;;;;;;;40.25;23.83;;;0.50;99.90;;;;;;5081940;28;20373;-68
2021/12/27 06:36:15;;;;;;;37.65;23.05;;;0.50;99.90;;;;;;5081230;28;20042;-68
2021/12/27 06:38:41;;;;;;;37.63;24.48;;;0.50;99.90;;;;;;5081844;28;20059;-68
2021/12/27 06:41:07;;;;;;;37.70;23.20;;;0.50;99.90;;;;;;5081623;28;20069;-68
2021/12/27 06:43:32;;;;;;;43.90;24.70;;;0.50;99.90;;;;;;5081149;28;20633;-67
2021/12/27 06:45:59;;;;;;;41.10;25.85;;;0.50;99.90;;;;;;5080367;28;20461;-67
2021/12/27 06:48:26;;;;;;;40.03;25.83;;;0.50;99.90;;;;;;5080420;28;20036;-67
2021/12/27 06:50:51;;;;;;;40.15;24.73;;;0.60;99.90;;;;;;5080790;28;20363;-67
2021/12/27 06:53:17;;;;;;;36.80;24.48;;;0.50;99.90;;;;;;5078399;28;20498;-67
2021/12/27 06:55:44;;;;;;;40.45;25.73;;;0.50;99.90;;;;;;5079389;28;20039;-67
2021/12/27 06:58:10;;;;;;;38.22;23.98;;;0.50;99.90;;;;;;5081808;28;20051;-67
2021/12/27 07:00:36;;;;;;;36.53;24.08;;;0.50;99.90;;;;;;5082976;28;20055;-66
2021/12/27 07:03:01;;;;;;;44.70;25.63;;;0.50;99.90;;;;;;5081700;28;20432;-67
2021/12/27 07:05:27;;;;;;;39.25;24.40;;;0.50;99.90;;;;;;5079463;28;20024;-67
2021/12/27 07:07:53;;;;;;;39.42;24.17;;;0.50;99.90;;;;;;5077604;28;20093;-66
2021/12/27 07:10:19;;;;;;;44.30;25.23;;;0.50;99.90;;;;;;5078801;28;20076;-68
2021/12/27 07:12:45;;;;;;;40.67;24.95;;;0.60;99.90;;;;;;5081719;28;20414;-67
2021/12/27 07:15:11;;;;;;;43.95;23.98;;;0.60;99.90;;;;;;5081136;28;20051;-67
2021/12/27 07:17:37;;;;;;;39.45;24.48;;;0.60;99.90;;;;;;5078795;28;20520;-67
2021/12/27 07:20:04;;;;;;;41.03;24.25;;;0.60;99.90;;;;;;5078997;28;20035;-67
2021/12/27 07:22:30;;;;;;;38.85;24.67;;;0.60;99.90;;;;;;5080714;28;20114;-67
2021/12/27 07:24:56;;;;;;;44.75;25.10;;;0.60;99.90;;;;;;5078654;28;20043;-67
2021/12/27 07:27:22;;;;;;;45.85;24.80;;;0.60;99.90;;;;;;5076047;28;20116;-67
2021/12/27 07:29:48;;;;;;;41.33;24.25;;;0.60;99.90;;;;;;5077632;28;20047;-67
2021/12/27 07:32:13;;;;;;;41.70;23.98;;;0.60;99.90;;;;;;5076345;28;20188;-67
2021/12/27 07:34:40;;;;;;;45.55;24.90;;;0.60;99.90;;;;;;5077844;28;20181;-67
2021/12/27 07:37:06;;;;;;;48.58;25.33;;;0.60;99.90;;;;;;5078950;28;20380;-67
2021/12/27 07:39:32;;;;;;;44.38;26.25;;;0.60;99.90;;;;;;5076478;28;20044;-67
2021/12/27 07:41:58;;;;;;;52.92;26.60;;;0.60;99.90;;;;;;5080208;28;20045;-67
2021/12/27 07:44:24;;;;;;;44.60;25.17;;;0.70;99.90;;;;;;5077997;28;20527;-67
2021/12/27 07:46:51;;;;;;;49.20;27.40;;;0.70;99.90;;;;;;5081099;28;20312;-67
2021/12/27 07:49:18;;;;;;;52.75;26.13;;;0.70;99.90;;;;;;5084238;28;20047;-67
2021/12/27 07:51:44;;;;;;;50.03;24.38;;;0.70;99.90;;;;;;5082836;28;20050;-67
2021/12/27 07:54:11;;;;;;;52.38;26.38;;;0.70;99.90;;;;;;5072382;28;20040;-67
2021/12/27 07:56:37;;;;;;;51.63;25.52;;;0.70;99.90;;;;;;5075855;28;20036;-67
2021/12/27 07:59:04;;;;;;;55.45;26.38;;;0.70;99.90;;;;;;5081935;28;20040;-67
2021/12/27 08:01:38;;;;;;;59.67;26.88;;;0.80;99.90;;;;;;5093076;28;20040;-67
2021/12/27 08:04:05;;;;;;;54.97;27.10;;;0.80;99.90;;;;;;5079539;28;20050;-67
2021/12/27 08:06:31;;;;;;;66.82;28.33;;;0.80;99.90;;;;;;5082757;28;20044;-67
2021/12/27 08:08:58;;;;;;;66.05;28.30;;;0.80;99.90;;;;;;5056874;28;20052;-67
2021/12/27 08:11:25;;;;;;;68.68;28.05;;;0.80;99.90;;;;;;5076349;28;20037;-67
2021/12/27 08:13:51;;;;;;;85.93;30.55;;;0.80;99.90;;;;;;5081143;28;20060;-67
2021/12/27 08:16:17;;;;;;;66.63;28.30;;;0.80;99.90;;;;;;5073146;28;20041;-67
2021/12/27 08:18:46;;;;;;;69.70;29.45;;;0.80;99.90;;;;;;5074581;28;20115;-68
2021/12/27 08:21:13;;;;;;;70.20;30.13;;;0.80;99.90;;;;;;5079318;28;20044;-67
2021/12/27 08:23:38;;;;;;;77.80;29.10;;;0.80;99.90;;;;;;5074602;28;20044;-68
2021/12/27 08:26:04;;;;;;;88.05;31.15;;;0.80;99.90;;;;;;5078488;28;20412;-67
2021/12/27 08:28:30;;;;;;;79.10;30.02;;;0.90;99.90;;;;;;5074799;28;20047;-67
2021/12/27 08:30:56;;;;;;;78.53;30.85;;;0.90;99.90;;;;;;5076401;28;20028;-67
2021/12/27 08:33:22;;;;;;;85.03;31.05;;;0.90;99.90;;;;;;5075913;28;20055;-67
2021/12/27 08:35:48;;;;;;;77.65;30.80;;;0.90;99.90;;;;;;5076225;28;20032;-67
2021/12/27 08:38:16;;;;;;;88.15;31.13;;;0.90;99.90;;;;;;5073100;28;20059;-67
2021/12/27 08:40:42;;;;;;;79.45;30.25;;;0.90;99.90;;;;;;5077048;28;20141;-67
2021/12/27 08:43:08;;;;;;;88.75;31.10;;;0.90;99.90;;;;;;5075980;28;20071;-67
2021/12/27 08:45:33;;;;;;;85.47;30.67;;;0.90;99.90;;;;;;5082901;28;20037;-67
2021/12/27 08:47:59;;;;;;;82.25;29.88;;;1.00;99.90;;;;;;5077555;28;20088;-67
2021/12/27 08:50:25;;;;;;;85.75;31.15;;;0.90;99.90;;;;;;5084307;28;20098;-67
2021/12/27 08:52:51;;;;;;;87.32;30.70;;;1.00;99.90;;;;;;5067231;28;20460;-67
2021/12/27 08:55:17;;;;;;;85.30;30.95;;;0.90;99.90;;;;;;5079645;28;20040;-67
2021/12/27 08:57:43;;;;;;;98.65;33.00;;;1.00;99.90;;;;;;5077467;28;20500;-67
2021/12/27 09:00:12;;;;;;;98.15;33.97;;;1.00;99.90;;;;;;5075601;28;20534;-66
2021/12/27 09:02:38;;;;;;;115.50;34.63;;;1.00;99.90;;;;;;5074591;28;20444;-67
2021/12/27 09:05:04;;;;;;;106.80;34.35;;;1.10;99.90;;;;;;5077718;28;20154;-67
2021/12/27 09:07:30;;;;;;;101.47;33.03;;;1.10;99.90;;;;;;5071277;28;20044;-65
2021/12/27 09:09:56;;;;;;;109.32;34.65;;;1.10;99.90;;;;;;5082291;28;20035;-64
2021/12/27 09:12:22;;;;;;;95.22;31.17;;;1.10;99.90;;;;;;5084314;28;20081;-66
2021/12/27 09:14:48;;;;;;;124.47;34.60;;;1.10;99.90;;;;;;5079812;28;20087;-67
2021/12/27 09:17:14;;;;;;;111.90;33.22;;;1.20;99.90;;;;;;5079982;28;20151;-67
2021/12/27 09:19:39;;;;;;;121.97;34.05;;;1.10;99.90;;;;;;5080778;28;20048;-67
2021/12/27 09:22:05;;;;;;;121.80;33.78;;;1.20;99.90;;;;;;5083498;28;20096;-67
2021/12/27 09:24:31;;;;;;;126.22;36.00;;;1.20;99.90;;;;;;5078869;28;20886;-67
2021/12/27 09:26:58;;;;;;;119.25;36.45;;;1.20;99.90;;;;;;5079107;28;20032;-67
2021/12/27 09:29:24;;;;;;;117.35;34.60;;;1.20;99.90;;;;;;5083587;28;20047;-67
2021/12/27 09:31:50;;;;;;;100.03;32.63;;;1.30;99.90;;;;;;5059051;28;20064;-68
2021/12/27 09:34:17;;;;;;;132.27;35.60;;;1.30;99.90;;;;;;5079207;28;20112;-67
2021/12/27 09:36:43;;;;;;;119.57;33.10;;;1.30;99.90;;;;;;5078276;28;20524;-68
2021/12/27 09:39:08;;;;;;;139.07;35.08;;;1.30;99.90;;;;;;5083705;28;20097;-68
2021/12/27 09:41:34;;;;;;;147.60;36.25;;;1.30;99.90;;;;;;5077858;28;20340;-68
2021/12/27 09:44:00;;;;;;;159.52;36.63;;;1.40;99.90;;;;;;5082105;28;20048;-67
2021/12/27 09:46:26;;;;;;;145.38;37.22;;;1.40;99.90;;;;;;5078873;28;20057;-67
2021/12/27 09:48:54;;;;;;;156.82;38.65;;;1.40;99.90;;;;;;5062414;28;20472;-67
2021/12/27 09:51:20;;;;;;;131.23;34.15;;;1.50;99.90;;;;;;5084382;28;20131;-68
2021/12/27 09:53:47;;;;;;;152.63;38.15;;;1.50;99.90;;;;;;5077801;28;20060;-68
2021/12/27 09:56:13;;;;;;;141.75;36.13;;;1.50;99.90;;;;;;5086995;28;20392;-67
2021/12/27 09:58:39;;;;;;;142.45;37.40;;;1.50;99.90;;;;;;5081620;28;20040;-68
2021/12/27 10:01:06;;;;;;;161.93;37.80;;;1.50;99.90;;;;;;5083638;28;20050;-68
2021/12/27 10:03:47;;;;;;;170.57;38.13;;;1.50;99.90;;;;;;5077881;28;20051;-68
2021/12/27 10:06:14;;;;;;;157.18;36.78;;;1.60;99.90;;;;;;5083387;28;20484;-68
2021/12/27 10:08:43;;;;;;;165.75;37.88;;;1.60;99.90;;;;;;5072381;28;20098;-68
2021/12/27 10:11:35;;;;;;;184.77;39.13;;;1.70;99.90;;;;;;5085486;28;20101;-68
2021/12/27 10:14:23;;;;;;;201.77;38.05;;;1.60;99.90;;;;;;5076219;28;20101;-68
2021/12/27 10:16:53;;;;;;;158.70;35.47;;;1.70;99.90;;;;;;5080079;28;20106;-68
2021/12/27 10:19:20;;;;;;;192.68;38.88;;;1.70;99.90;;;;;;5079455;28;20052;-68
2021/12/27 10:21:50;;;;;;;160.15;36.08;;;1.70;99.90;;;;;;5073479;28;20094;-68
2021/12/27 10:24:21;;;;;;;169.63;37.63;;;1.80;99.90;;;;;;5081942;28;20417;-68
2021/12/27 10:26:49;;;;;;;170.07;36.35;;;1.80;99.90;;;;;;5083482;28;20186;-68
2021/12/27 10:29:36;;;;;;;162.57;37.92;;;1.90;99.90;;;;;;5079413;28;20040;-68
2021/12/27 10:32:06;;;;;;;166.20;35.17;;;1.90;99.90;;;;;;5083332;28;20040;-68
2021/12/27 10:34:39;;;;;;;193.90;39.95;;;1.90;99.90;;;;;;5094420;28;20044;-68
2021/12/27 10:37:12;;;;;;;190.95;41.00;;;2.00;99.90;;;;;;5084734;28;20078;-68
2021/12/27 10:39:48;;;;;;;156.80;36.63;;;2.00;99.90;;;;;;5081442;28;20050;-68
2021/12/27 10:42:35;;;;;;;176.30;38.13;;;2.00;99.90;;;;;;5083347;28;20036;-68
2021/12/27 10:45:21;;;;;;;173.55;36.78;;;2.00;99.90;;;;;;5081943;28;20093;-68
2021/12/27 10:47:54;;;;;;;224.00;39.70;;;2.10;99.90;;;;;;5076485;28;20388;-69
2021/12/27 10:50:23;;;;;;;202.98;38.45;;;2.10;99.90;;;;;;5074446;28;20052;-68
2021/12/27 10:52:59;;;;;;;167.90;34.92;;;2.10;99.90;;;;;;5081473;28;20185;-68
2021/12/27 10:55:38;;;;;;;205.88;40.65;;;2.10;99.90;;;;;;5082017;28;20044;-68
2021/12/27 10:58:26;;;;;;;225.57;43.00;;;2.20;99.90;;;;;;5082137;28;20173;-68
2021/12/27 11:00:59;;;;;;;199.68;39.95;;;2.20;99.90;;;;;;5081794;28;20046;-68
2021/12/27 11:03:29;;;;;;;164.20;37.58;;;2.30;99.90;;;;;;5084848;28;20040;-68
2021/12/27 11:05:56;;;;;;;236.60;41.55;;;2.30;99.90;;;;;;5081054;28;20036;-68
2021/12/27 11:08:22;;;;;;;177.75;37.97;;;2.40;99.90;;;;;;5081947;28;20090;-68
2021/12/27 11:10:49;;;;;;;189.45;38.88;;;2.40;99.90;;;;;;5085945;28;20084;-68
2021/12/27 11:13:14;;;;;;;183.73;39.95;;;2.40;99.90;;;;;;5084852;28;20135;-68
2021/12/27 11:15:42;;;;;;;162.23;38.38;;;2.40;99.90;;;;;;5080593;28;20123;-68
2021/12/27 11:18:08;;;;;;;182.85;39.92;;;2.40;99.90;;;;;;5080729;28;20052;-68
2021/12/27 11:20:36;;;;;;;158.15;37.72;;;2.40;99.90;;;;;;5087568;28;20037;-69
2021/12/27 11:23:03;;;;;;;225.68;40.42;;;2.40;99.90;;;;;;5064212;28;20035;-69
2021/12/27 11:25:38;;;;;;;162.88;35.85;;;2.40;99.90;;;;;;5081672;28;20040;-69
2021/12/27 11:28:23;;;;;;;160.70;37.70;;;2.50;99.90;;;;;;5075460;28;20110;-69
2021/12/27 11:30:50;;;;;;;168.82;36.58;;;2.40;99.90;;;;;;5083768;28;20123;-69
2021/12/27 11:33:20;;;;;;;155.75;36.13;;;2.50;99.90;;;;;;5078689;28;20044;-69
2021/12/27 11:35:51;;;;;;;167.32;36.28;;;2.50;99.90;;;;;;5086184;28;20393;-69
2021/12/27 11:38:31;;;;;;;214.40;38.28;;;2.50;99.90;;;;;;5080164;28;20086;-68
2021/12/27 11:40:58;;;;;;;185.60;37.50;;;2.50;99.90;;;;;;5077737;28;20048;-68
2021/12/27 11:43:24;;;;;;;171.32;36.80;;;2.50;99.90;;;;;;5078992;28;20040;-69
2021/12/27 11:45:55;;;;;;;186.65;38.83;;;2.50;99.90;;;;;;5083990;28;20040;-69
2021/12/27 11:48:24;;;;;;;187.40;36.47;;;2.50;99.90;;;;;;5076015;28;20036;-69
2021/12/27 11:50:59;;;;;;;161.98;38.42;;;2.60;99.90;;;;;;5082197;28;20043;-69
2021/12/27 11:53:58;;;;;;;175.70;38.17;;;2.60;99.90;;;;;;5083344;28;20491;-70
2021/12/27 11:56:46;;;;;;;158.48;35.75;;;2.60;99.90;;;;;;5069918;28;20058;-69
2021/12/27 11:59:35;;;;;;;141.95;36.03;;;2.60;99.90;;;;;;5079829;28;20036;-69
2021/12/27 12:02:13;;;;;;;179.02;37.78;;;2.60;99.90;;;;;;5080526;28;20040;-69
2021/12/27 12:04:54;;;;;;;210.07;42.42;;;2.60;99.90;;;;;;5085149;28;20140;-69
2021/12/27 12:07:32;;;;;;;185.93;40.13;;;2.70;99.90;;;;;;5065586;28;20073;-69
2021/12/27 12:10:03;;;;;;;185.43;39.78;;;2.70;99.90;;;;;;5083123;28;20043;-69
2021/12/27 12:12:29;;;;;;;153.77;35.97;;;2.70;99.90;;;;;;5079794;28;20412;-69
2021/12/27 12:14:59;;;;;;;213.55;41.63;;;2.70;99.90;;;;;;5087041;28;20360;-69
2021/12/27 12:17:44;;;;;;;170.10;40.15;;;2.80;99.90;;;;;;5066714;28;20044;-67
2021/12/27 12:20:48;;;;;;;199.85;41.35;;;2.80;99.90;;;;;;5092628;28;20127;-69
2021/12/27 12:23:14;;;;;;;155.65;37.97;;;2.90;99.90;;;;;;5031650;28;20037;-68
2021/12/27 12:25:40;;;;;;;157.23;37.47;;;2.90;99.90;;;;;;5032169;28;20083;-68
2021/12/27 12:28:11;;;;;;;188.80;41.08;;;3.00;99.90;;;;;;5045378;28;20497;-68
2021/12/27 12:30:50;;;;;;;206.80;42.10;;;2.90;99.90;;;;;;5084138;28;20477;-68
2021/12/27 12:33:25;;;;;;;153.07;38.05;;;2.90;99.90;;;;;;5075588;28;20081;-68
2021/12/27 12:36:11;;;;;;;137.68;36.00;;;2.90;99.90;;;;;;5079894;28;20045;-68
2021/12/27 12:38:38;;;;;;;165.05;38.28;;;3.00;99.90;;;;;;5078434;28;20040;-68
2021/12/27 12:41:17;;;;;;;164.60;38.20;;;3.00;99.90;;;;;;5083653;28;20048;-68